createdAt,value
2023-04-24T00:00:15.988Z,4.40
2023-04-24T00:05:19.268Z,4.43
2023-04-24T00:10:22.773Z,4.00
2023-04-24T00:15:25.773Z,3.40
2023-04-24T00:20:33.692Z,4.30
2023-04-24T00:25:36.504Z,4.57
2023-04-24T00:30:39.522Z,3.10
2023-04-24T00:35:42.583Z,3.37
2023-04-24T00:40:46.056Z,3.30
2023-04-24T00:45:49.106Z,4.30
2023-04-24T00:50:52.182Z,3.43
2023-04-24T00:55:55.304Z,3.50
2023-04-24T01:00:59.732Z,4.70
2023-04-24T01:06:03.003Z,5.50
2023-04-24T01:11:06.588Z,5.47
2023-04-24T01:16:09.409Z,5.80
2023-04-24T01:21:19.656Z,4.03
2023-04-24T01:26:24.788Z,5.37
2023-04-24T01:31:27.772Z,4.00
2023-04-24T01:36:33.320Z,4.30
2023-04-24T01:41:36.329Z,5.70
2023-04-24T01:46:39.570Z,4.27
2023-04-24T01:51:42.717Z,3.93
2023-04-24T01:56:47.732Z,3.30
2023-04-24T02:01:50.699Z,4.57
2023-04-24T02:06:53.876Z,4.73
2023-04-24T02:11:57.488Z,4.90
2023-04-24T02:17:00.257Z,5.77
2023-04-24T02:22:03.184Z,5.83
2023-04-24T02:27:06.384Z,6.13
2023-04-24T02:32:13.340Z,7.60
2023-04-24T02:37:16.585Z,7.50
2023-04-24T02:42:19.703Z,7.60
2023-04-24T02:47:22.452Z,9.07
2023-04-24T02:52:25.544Z,13.87
2023-04-24T02:57:28.501Z,12.03
2023-04-24T03:02:31.562Z,10.20
2023-04-24T03:07:34.983Z,6.20
2023-04-24T03:12:37.879Z,7.53
2023-04-24T03:17:40.891Z,8.07
2023-04-24T03:22:43.735Z,5.70
2023-04-24T03:27:47.236Z,7.13
2023-04-24T03:32:50.301Z,6.73
2023-04-24T03:37:53.226Z,6.73
2023-04-24T03:42:56.293Z,11.53
2023-04-24T03:47:59.435Z,12.53
2023-04-24T03:53:02.446Z,8.90
2023-04-24T03:58:06.982Z,17.17
2023-04-24T04:03:10.167Z,28.27
2023-04-24T04:08:13.323Z,28.73
2023-04-24T04:13:16.390Z,15.53
2023-04-24T04:18:19.397Z,14.83
2023-04-24T04:23:22.348Z,10.47
2023-04-24T04:28:28.178Z,9.40
2023-04-24T04:33:32.029Z,10.70
2023-04-24T04:38:36.073Z,9.87
2023-04-24T04:43:40.749Z,6.20
2023-04-24T04:48:44.149Z,6.70
2023-04-24T04:53:47.152Z,6.90
2023-04-24T04:58:50.560Z,5.87
2023-04-24T05:03:53.618Z,5.40
2023-04-24T05:08:58.327Z,6.80
2023-04-24T05:14:01.434Z,5.83
2023-04-24T05:19:04.377Z,6.43
2023-04-24T05:24:08.005Z,5.83
2023-04-24T05:29:10.901Z,6.00
2023-04-24T05:34:13.866Z,6.83
2023-04-24T05:39:16.807Z,6.20
2023-04-24T05:44:19.897Z,7.30
2023-04-24T05:49:23.447Z,5.70
2023-04-24T05:54:26.444Z,6.63
2023-04-24T05:59:29.900Z,6.63
2023-04-24T06:04:34.188Z,7.03
2023-04-24T06:09:37.763Z,7.37
2023-04-24T06:14:40.889Z,6.63
2023-04-24T06:19:43.789Z,6.77
2023-04-24T06:24:48.340Z,6.80
2023-04-24T06:29:55.308Z,6.90
2023-04-24T06:34:59.507Z,7.07
2023-04-24T06:40:02.714Z,6.07
2023-04-24T06:45:06.328Z,7.03
2023-04-24T06:50:10.134Z,7.28
2023-04-24T06:55:13.132Z,6.55
2023-04-24T07:00:16.574Z,7.15
2023-04-24T07:05:21.013Z,7.63
2023-04-24T07:10:24.253Z,7.10
2023-04-24T07:15:27.619Z,7.03
2023-04-24T07:20:30.692Z,7.70
2023-04-24T07:25:34.065Z,7.32
2023-04-24T07:30:37.114Z,7.10
2023-04-24T07:35:40.070Z,6.70
2023-04-24T07:40:43.231Z,6.97
2023-04-24T07:45:46.411Z,7.28
2023-04-24T07:50:49.604Z,6.03
2023-04-24T07:55:52.635Z,6.30
2023-04-24T08:00:56.120Z,8.40
2023-04-24T08:05:59.331Z,6.05
2023-04-24T08:11:02.336Z,6.47
2023-04-24T08:16:05.685Z,5.78
2023-04-24T08:21:08.841Z,6.40
2023-04-24T08:26:12.323Z,7.22
2023-04-24T08:31:15.621Z,6.88
2023-04-24T08:36:18.637Z,6.30
2023-04-24T08:41:22.413Z,5.88
2023-04-24T08:46:26.396Z,5.55
2023-04-24T08:51:31.559Z,5.53
2023-04-24T08:56:38.941Z,6.07
2023-04-24T09:01:43.077Z,5.80
2023-04-24T09:06:46.076Z,6.43
2023-04-24T09:11:51.797Z,6.25
2023-04-24T09:16:55.031Z,5.68
2023-04-24T09:21:58.079Z,5.18
2023-04-24T09:27:02.517Z,5.60
2023-04-24T09:32:26.912Z,5.45
2023-04-24T09:37:31.158Z,5.07
2023-04-24T09:42:34.287Z,4.88
2023-04-24T09:47:41.327Z,5.25
2023-04-24T09:53:06.575Z,4.20
2023-04-24T09:58:10.356Z,4.95
2023-04-24T10:03:14.038Z,4.18
2023-04-24T10:08:17.144Z,3.90
2023-04-24T10:13:20.663Z,3.60
2023-04-24T10:18:25.275Z,4.78
2023-04-24T10:23:29.539Z,3.90
2023-04-24T10:28:35.160Z,5.45
2023-04-24T10:33:39.437Z,4.72
2023-04-24T10:38:47.261Z,4.22
2023-04-24T10:44:10.849Z,5.05
2023-04-24T10:49:17.035Z,4.55
2023-04-24T10:54:48.475Z,5.00
2023-04-24T11:00:13.540Z,4.80
2023-04-24T11:05:18.688Z,5.07
2023-04-24T11:10:28.440Z,4.90
2023-04-24T11:15:31.572Z,5.43
2023-04-24T11:20:34.657Z,4.90
2023-04-24T11:25:37.655Z,5.47
2023-04-24T11:30:41.426Z,5.25
2023-04-24T11:35:44.538Z,4.40
2023-04-24T11:40:50.182Z,5.70
2023-04-24T11:45:53.292Z,5.30
2023-04-24T11:50:56.761Z,5.35
2023-04-24T11:56:05.476Z,5.53
2023-04-24T12:01:08.478Z,5.93
2023-04-24T12:06:13.190Z,5.97
2023-04-24T12:11:19.005Z,6.30
2023-04-24T12:16:22.287Z,5.93
2023-04-24T12:21:27.666Z,7.60
2023-04-24T12:26:30.990Z,6.40
2023-04-24T12:31:34.251Z,6.13
2023-04-24T12:36:37.325Z,6.78
2023-04-24T12:42:00.407Z,5.47
2023-04-24T12:47:03.653Z,5.53
2023-04-24T12:52:06.651Z,6.90
2023-04-24T12:57:09.658Z,6.85
2023-04-24T13:02:13.059Z,5.55
2023-04-24T13:07:16.496Z,4.30
2023-04-24T13:12:19.558Z,3.60
2023-04-24T13:17:23.489Z,3.63
2023-04-24T13:22:26.536Z,4.60
2023-04-24T13:27:29.511Z,3.47
2023-04-24T13:32:34.425Z,3.78
2023-04-24T13:37:37.555Z,4.90
2023-04-24T13:42:41.170Z,4.18
2023-04-24T13:47:44.144Z,4.28
2023-04-24T13:52:47.242Z,4.82
2023-04-24T13:57:50.561Z,6.47
2023-04-24T14:02:53.686Z,4.78
2023-04-24T14:07:57.291Z,5.55
2023-04-24T14:13:00.385Z,6.07
2023-04-24T14:18:05.742Z,6.57
2023-04-24T14:23:09.528Z,6.00
2023-04-24T14:28:12.555Z,4.15
2023-04-24T14:33:16.193Z,5.93
2023-04-24T14:38:19.133Z,5.38
2023-04-24T14:43:22.173Z,5.80
2023-04-24T14:48:25.773Z,6.35
2023-04-24T14:53:28.841Z,7.50
2023-04-24T14:58:31.889Z,5.53
2023-04-24T15:03:35.134Z,5.35
2023-04-24T15:08:38.275Z,4.45
2023-04-24T15:13:41.274Z,4.22
2023-04-24T15:18:44.365Z,4.78
2023-04-24T15:23:47.616Z,4.90
2023-04-24T15:28:51.478Z,4.07
2023-04-24T15:33:54.465Z,5.03
2023-04-24T15:38:57.798Z,4.47
2023-04-24T15:44:01.110Z,3.40
2023-04-24T15:49:04.266Z,3.65
2023-04-24T15:54:08.403Z,3.60
2023-04-24T15:59:11.488Z,3.70
2023-04-24T16:04:14.796Z,4.00
2023-04-24T16:09:18.422Z,3.30
2023-04-24T16:14:21.419Z,3.30
2023-04-24T16:19:24.682Z,3.60
2023-04-24T16:24:29.605Z,4.20
2023-04-24T16:29:32.793Z,3.33
2023-04-24T16:34:35.779Z,2.72
2023-04-24T16:39:39.004Z,2.60
2023-04-24T16:44:43.139Z,2.30
2023-04-24T16:49:46.265Z,3.30
2023-04-24T16:54:49.285Z,2.80
2023-04-24T16:59:52.299Z,3.33
2023-04-24T17:04:55.570Z,3.53
2023-04-24T17:09:58.618Z,4.03
2023-04-24T17:15:01.688Z,2.92
2023-04-24T17:20:18.586Z,5.30
2023-04-24T17:25:25.128Z,3.90
2023-04-24T17:30:28.105Z,3.03
2023-04-24T17:35:31.144Z,2.60
2023-04-24T17:40:34.490Z,2.60
2023-04-24T17:45:37.757Z,3.17
2023-04-24T17:50:41.076Z,4.10
2023-04-24T17:55:44.531Z,3.83
2023-04-24T18:00:47.499Z,2.57
2023-04-24T18:05:50.864Z,3.03
2023-04-24T18:10:54.764Z,2.50
2023-04-24T18:15:57.784Z,3.57
2023-04-24T18:21:01.042Z,3.77
2023-04-24T18:26:04.247Z,2.73
2023-04-24T18:31:08.667Z,3.33
2023-04-24T18:36:11.552Z,3.57
2023-04-24T18:41:14.816Z,3.93
2023-04-24T18:46:18.317Z,2.60
2023-04-24T18:51:21.197Z,2.60
2023-04-24T18:56:24.167Z,1.93
2023-04-24T19:01:27.471Z,2.50
2023-04-24T19:06:31.932Z,3.17
2023-04-24T19:11:35.031Z,2.53
2023-04-24T19:16:38.071Z,3.07
2023-04-24T19:21:41.300Z,2.07
2023-04-24T19:26:45.371Z,1.90
2023-04-24T19:31:48.399Z,2.20
2023-04-24T19:36:51.520Z,1.30
2023-04-24T19:41:57.142Z,1.40
2023-04-24T19:47:00.424Z,1.73
2023-04-24T19:52:03.390Z,1.37
2023-04-24T19:57:06.741Z,1.93
2023-04-24T20:02:11.601Z,2.20
2023-04-24T20:07:14.695Z,2.80
2023-04-24T20:12:19.544Z,2.10
2023-04-24T20:17:22.530Z,2.33
2023-04-24T20:22:25.585Z,2.40
2023-04-24T20:27:30.283Z,2.00
2023-04-24T20:32:33.395Z,2.07
2023-04-24T20:37:36.937Z,2.37
2023-04-24T20:42:40.246Z,1.80
2023-04-24T20:47:43.132Z,1.80
2023-04-24T20:52:46.652Z,1.70
2023-04-24T20:57:49.678Z,1.73
2023-04-24T21:02:52.792Z,2.20
2023-04-24T21:07:56.289Z,2.13
2023-04-24T21:12:59.354Z,2.33
2023-04-24T21:18:03.390Z,2.07
2023-04-24T21:23:06.386Z,1.43
2023-04-24T21:28:09.282Z,1.70
2023-04-24T21:33:12.690Z,1.60
2023-04-24T21:38:15.768Z,1.70
2023-04-24T21:43:20.600Z,2.10
2023-04-24T21:48:26.437Z,1.87
2023-04-24T21:53:29.829Z,1.90
2023-04-24T21:58:32.836Z,1.77
2023-04-24T22:03:36.012Z,1.60
2023-04-24T22:08:39.174Z,1.57
2023-04-24T22:13:42.865Z,1.47
2023-04-24T22:18:47.702Z,1.10
2023-04-24T22:23:51.711Z,1.37
2023-04-24T22:28:54.939Z,1.17
2023-04-24T22:33:57.957Z,1.13
2023-04-24T22:39:00.874Z,1.00
2023-04-24T22:44:04.139Z,1.60
2023-04-24T22:49:07.390Z,1.27
2023-04-24T22:54:10.997Z,1.23
2023-04-24T22:59:13.968Z,1.40
2023-04-24T23:04:16.981Z,2.00
2023-04-24T23:09:20.095Z,1.70
2023-04-24T23:14:24.662Z,1.30
2023-04-24T23:19:27.830Z,1.50
2023-04-24T23:24:30.897Z,1.30
2023-04-24T23:29:33.997Z,1.40
2023-04-24T23:34:39.406Z,1.87
2023-04-24T23:39:42.258Z,1.67
2023-04-24T23:44:45.408Z,1.70
2023-04-24T23:49:48.334Z,1.40
2023-04-24T23:54:51.320Z,1.60
2023-04-24T23:59:54.419Z,1.20
